createdAt,value
2018-04-13T00:00:28.618Z,106.40
2018-04-13T00:01:28.690Z,114.90
2018-04-13T00:02:28.686Z,121.80
2018-04-13T00:03:49.696Z,122.80
2018-04-13T00:04:28.702Z,124.70
2018-04-13T00:05:28.724Z,121.00
2018-04-13T00:06:28.782Z,118.70
2018-04-13T00:07:28.758Z,116.60
2018-04-13T00:08:28.773Z,116.90
2018-04-13T00:09:49.834Z,118.50
2018-04-13T00:10:28.829Z,122.00
2018-04-13T00:11:28.857Z,129.10
2018-04-13T00:12:28.865Z,134.00
2018-04-13T00:13:28.987Z,130.30
2018-04-13T00:14:28.934Z,138.10
2018-04-13T00:15:49.925Z,134.50
2018-04-13T00:16:28.917Z,143.30
2018-04-13T00:17:28.949Z,136.70
2018-04-13T00:18:28.957Z,138.50
2018-04-13T00:19:28.993Z,130.60
2018-04-13T00:20:29.004Z,135.20
2018-04-13T00:21:50.181Z,142.30
2018-04-13T00:22:29.045Z,138.80
2018-04-13T00:23:29.149Z,146.80
2018-04-13T00:24:29.126Z,141.80
2018-04-13T00:25:29.103Z,162.00
2018-04-13T00:26:29.133Z,144.80
2018-04-13T00:27:50.150Z,128.00
2018-04-13T00:28:29.195Z,136.80
2018-04-13T00:29:29.492Z,142.60
2018-04-13T00:30:29.207Z,144.20
2018-04-13T00:31:29.223Z,141.60
2018-04-13T00:32:29.225Z,118.70
2018-04-13T00:33:50.253Z,111.90
2018-04-13T00:34:29.265Z,112.60
2018-04-13T00:35:29.296Z,98.80
2018-04-13T00:36:29.335Z,98.70
2018-04-13T00:37:29.317Z,106.40
2018-04-13T00:38:29.380Z,107.00
2018-04-13T00:39:50.406Z,107.90
2018-04-13T00:40:29.423Z,106.60
2018-04-13T00:41:29.380Z,108.80
2018-04-13T00:42:29.424Z,106.60
2018-04-13T00:43:29.428Z,111.40
2018-04-13T00:44:29.469Z,106.60
2018-04-13T00:45:50.483Z,103.20
2018-04-13T00:46:29.489Z,118.60
2018-04-13T00:47:29.538Z,121.20
2018-04-13T00:48:29.534Z,113.80
2018-04-13T00:49:29.737Z,108.40
2018-04-13T00:50:29.635Z,141.10
2018-04-13T00:51:51.062Z,139.70
2018-04-13T00:52:29.677Z,130.10
2018-04-13T00:53:29.769Z,131.40
2018-04-13T00:54:30.214Z,131.20
2018-04-13T00:55:29.897Z,119.00
2018-04-13T00:56:29.976Z,115.90
2018-04-13T00:57:51.245Z,127.20
2018-04-13T00:58:29.734Z,138.70
2018-04-13T00:59:29.733Z,132.80
2018-04-13T01:00:29.800Z,163.70
2018-04-13T01:01:30.522Z,148.80
2018-04-13T01:02:29.866Z,151.50
2018-04-13T01:03:50.896Z,155.60
2018-04-13T01:04:29.841Z,155.50
2018-04-13T01:05:29.853Z,139.20
2018-04-13T01:06:29.890Z,129.50
2018-04-13T01:07:29.878Z,125.90
2018-04-13T01:08:29.925Z,115.40
2018-04-13T01:09:50.938Z,146.30
2018-04-13T01:10:29.946Z,191.50
2018-04-13T01:11:29.958Z,140.80
2018-04-13T01:12:30.073Z,125.50
2018-04-13T01:13:29.977Z,114.40
2018-04-13T01:14:30.004Z,118.70
2018-04-13T01:15:51.036Z,118.40
2018-04-13T01:16:30.056Z,110.60
2018-04-13T01:17:30.062Z,117.60
2018-04-13T01:18:30.069Z,111.70
2018-04-13T01:19:30.105Z,116.30
2018-04-13T01:20:30.114Z,127.30
2018-04-13T01:21:51.149Z,115.80
2018-04-13T01:22:30.182Z,132.10
2018-04-13T01:23:30.171Z,129.60
2018-04-13T01:24:30.179Z,135.70
2018-04-13T01:25:30.215Z,136.70
2018-04-13T01:26:30.248Z,152.90
2018-04-13T01:27:51.258Z,154.10
2018-04-13T01:28:30.292Z,143.90
2018-04-13T01:29:30.276Z,138.30
2018-04-13T01:30:30.319Z,137.40
2018-04-13T01:31:30.303Z,128.90
2018-04-13T01:32:30.357Z,140.00
2018-04-13T01:33:51.367Z,142.90
2018-04-13T01:34:30.377Z,141.00
2018-04-13T01:35:30.389Z,143.40
2018-04-13T01:36:30.405Z,151.40
2018-04-13T01:37:30.439Z,134.80
2018-04-13T01:38:30.452Z,126.90
2018-04-13T01:39:51.487Z,140.10
2018-04-13T01:40:30.495Z,144.40
2018-04-13T01:41:30.503Z,143.90
2018-04-13T01:42:30.524Z,155.70
2018-04-13T01:43:30.551Z,144.30
2018-04-13T01:44:30.593Z,149.20
2018-04-13T01:45:51.599Z,152.10
2018-04-13T01:46:30.604Z,148.60
2018-04-13T01:47:30.613Z,134.80
2018-04-13T03:47:53.132Z,98.20
2018-04-13T03:48:53.116Z,135.10
2018-04-13T03:50:46.053Z,171.80
2018-04-13T03:51:46.030Z,162.50
2018-04-13T03:53:38.955Z,122.80
2018-04-13T03:54:38.954Z,185.00
2018-04-13T03:56:31.888Z,123.70
2018-04-13T03:57:31.879Z,185.10
2018-04-13T03:59:24.823Z,243.80
2018-04-13T04:00:24.815Z,232.10
2018-04-13T04:02:17.770Z,211.20
2018-04-13T04:03:17.785Z,191.70
2018-04-13T04:05:10.774Z,219.20
2018-04-13T04:06:10.710Z,254.20
2018-04-13T04:08:03.634Z,285.10
2018-04-13T04:09:03.690Z,266.30
2018-04-13T04:10:56.605Z,266.10
2018-04-13T04:11:56.617Z,258.00
2018-04-13T04:13:49.540Z,275.30
2018-04-13T04:14:49.505Z,283.90
2018-04-13T04:16:42.956Z,289.80
2018-04-13T04:17:42.944Z,290.10
2018-04-13T04:19:35.894Z,305.50
2018-04-13T04:20:35.882Z,283.30
2018-04-13T04:22:28.817Z,250.70
2018-04-13T04:23:28.817Z,297.70
2018-04-13T04:25:21.802Z,270.40
2018-04-13T04:26:21.766Z,245.20
2018-04-13T04:28:14.678Z,224.90
2018-04-13T04:29:14.692Z,281.70
2018-04-13T04:31:07.803Z,215.40
2018-04-13T04:32:07.630Z,200.50
2018-04-13T04:34:00.551Z,246.10
2018-04-13T04:35:00.563Z,221.40
2018-04-13T04:36:53.555Z,286.70
2018-04-13T04:37:53.501Z,239.10
2018-04-13T04:39:46.472Z,305.40
2018-04-13T04:40:46.456Z,274.20
2018-04-13T04:42:39.868Z,291.10
2018-04-13T04:43:39.878Z,257.90
2018-04-13T04:45:32.825Z,265.30
2018-04-13T04:46:32.816Z,335.00
2018-04-13T04:48:25.754Z,269.70
2018-04-13T04:49:25.772Z,227.10
2018-04-13T04:51:20.206Z,266.20
2018-04-13T04:52:20.200Z,199.30
2018-04-13T04:54:13.629Z,196.20
2018-04-13T04:55:13.642Z,139.60
2018-04-13T04:57:06.588Z,170.80
2018-04-13T04:58:06.592Z,136.30
2018-04-13T04:59:59.537Z,162.70
2018-04-13T05:00:59.528Z,131.40
2018-04-13T05:02:52.451Z,71.00
2018-04-13T05:03:52.474Z,87.40
2018-04-13T05:05:45.415Z,89.20
2018-04-13T05:06:45.406Z,118.10
2018-04-13T05:08:38.327Z,114.10
2018-04-13T05:09:38.336Z,108.20
2018-04-13T05:11:31.819Z,134.90
2018-04-13T05:12:31.773Z,137.80
2018-04-13T05:14:26.194Z,129.00
2018-04-13T05:15:26.203Z,104.60
2018-04-13T05:17:19.175Z,99.30
2018-04-13T05:18:19.140Z,109.40
2018-04-13T05:20:12.081Z,75.90
2018-04-13T05:21:12.076Z,69.80
2018-04-13T05:23:05.020Z,66.20
2018-04-13T05:24:05.016Z,66.50
2018-04-13T05:25:57.958Z,63.70
2018-04-13T05:26:57.960Z,53.20
2018-04-13T05:28:51.380Z,56.20
2018-04-13T05:29:51.382Z,52.70
2018-04-13T05:31:44.342Z,52.40
2018-04-13T05:32:44.330Z,53.30
2018-04-13T05:34:37.752Z,55.60
2018-04-13T05:35:37.758Z,53.10
2018-04-13T05:37:30.707Z,47.70
2018-04-13T05:38:30.700Z,47.70
2018-04-13T05:40:23.634Z,48.40
2018-04-13T05:41:23.647Z,45.40
2018-04-13T05:43:16.597Z,46.30
2018-04-13T05:44:16.588Z,45.60
2018-04-13T05:46:10.118Z,43.90
2018-04-13T05:47:10.018Z,42.60
2018-04-13T05:49:02.948Z,45.40
2018-04-13T05:50:02.957Z,43.60
2018-04-13T05:51:56.403Z,45.60
2018-04-13T05:52:56.391Z,44.20
2018-04-13T05:54:49.813Z,44.00
2018-04-13T05:55:49.844Z,43.10
2018-04-13T05:57:42.792Z,45.60
2018-04-13T05:58:42.760Z,43.30
2018-04-13T06:00:35.687Z,45.30
2018-04-13T06:01:35.704Z,43.20
2018-04-13T06:03:28.650Z,41.50
2018-04-13T06:04:28.645Z,42.80
2018-04-13T06:06:21.634Z,45.30
2018-04-13T06:07:21.623Z,38.70
2018-04-13T06:09:14.513Z,43.40
2018-04-13T06:10:14.529Z,44.00
2018-04-13T06:12:07.537Z,41.90
2018-04-13T06:13:07.518Z,43.80
2018-04-13T06:15:00.469Z,42.90
2018-04-13T06:16:00.475Z,42.70
2018-04-13T06:17:53.429Z,42.50
2018-04-13T06:18:53.449Z,40.40
2018-04-13T06:22:31.682Z,40.00
2018-04-13T06:23:31.725Z,38.40
2018-04-13T06:25:24.630Z,38.30
2018-04-13T06:26:24.634Z,36.70
2018-04-13T06:28:17.640Z,37.50
2018-04-13T06:29:17.552Z,37.50
2018-04-13T06:31:10.485Z,36.20
2018-04-13T06:32:10.477Z,37.10
2018-04-13T06:34:03.404Z,41.80
2018-04-13T06:35:03.423Z,40.10
2018-04-13T06:36:56.363Z,41.80
2018-04-13T06:37:56.362Z,39.10
2018-04-13T06:39:49.341Z,35.70
2018-04-13T06:40:49.317Z,35.80
2018-04-13T06:42:42.740Z,37.50
2018-04-13T06:43:42.792Z,37.50
2018-04-13T06:45:35.711Z,37.20
2018-04-13T06:46:35.698Z,36.50
2018-04-13T06:48:28.617Z,38.50
2018-04-13T06:49:28.630Z,39.20
2018-04-13T06:51:22.052Z,37.20
2018-04-13T06:52:22.044Z,38.70
2018-04-13T06:54:14.966Z,38.70
2018-04-13T06:55:14.993Z,40.90
2018-04-13T06:57:07.923Z,43.70
2018-04-13T06:58:07.926Z,41.30
2018-04-13T07:00:00.860Z,42.70
2018-04-13T07:01:00.863Z,43.80
2018-04-13T07:02:53.860Z,48.50
2018-04-13T07:03:53.851Z,44.00
2018-04-13T07:05:46.880Z,48.00
2018-04-13T07:06:46.901Z,46.50
2018-04-13T07:08:39.869Z,42.10
2018-04-13T07:09:39.850Z,41.50
2018-04-13T07:10:39.868Z,41.50
2018-04-13T07:11:39.891Z,41.20
2018-04-13T07:12:39.926Z,41.10
2018-04-13T07:13:39.984Z,38.60
2018-04-13T07:14:39.967Z,40.10
2018-04-13T07:15:40.016Z,38.80
2018-04-13T07:16:40.004Z,43.50
2018-04-13T07:17:40.041Z,40.50
2018-04-13T07:18:40.051Z,40.90
2018-04-13T07:19:40.051Z,44.40
2018-04-13T07:20:40.076Z,41.20
2018-04-13T07:21:40.093Z,39.90
2018-04-13T07:22:40.109Z,38.30
2018-04-13T07:23:40.155Z,41.40
2018-04-13T07:24:40.153Z,40.60
2018-04-13T07:25:40.171Z,39.40
2018-04-13T07:26:40.224Z,39.80
2018-04-13T07:27:40.212Z,41.40
2018-04-13T07:28:40.253Z,39.90
2018-04-13T07:29:40.263Z,40.70
2018-04-13T07:30:40.279Z,42.10
2018-04-13T07:31:40.330Z,38.60
2018-04-13T07:32:40.318Z,39.40
2018-04-13T07:33:40.781Z,40.80
2018-04-13T07:34:40.356Z,38.50
2018-04-13T07:35:40.378Z,40.60
2018-04-13T07:36:40.408Z,44.30
2018-04-13T07:37:40.416Z,39.60
2018-04-13T07:40:43.517Z,39.80
